sensor_id;sensor_type;location;lat;lon;timestamp;pressure;altitude;pressure_sealevel;temperature;humidity
68994;BME280;56054;50.968;5.816;2023-04-04T05:09:48;102002.84;;;1.10;90.16
68994;BME280;56054;50.968;5.816;2023-04-04T05:13:05;102002.31;;;1.27;89.84
68994;BME280;56054;50.968;5.816;2023-04-04T05:21:17;102003.31;;;0.79;93.58
68994;BME280;56054;50.968;5.816;2023-04-04T05:25:05;101997.72;;;1.03;91.56
68994;BME280;56054;50.968;5.816;2023-04-04T05:41:22;102019.41;;;0.85;94.47
68994;BME280;56054;50.968;5.816;2023-04-04T05:49:12;102016.38;;;1.31;94.70
68994;BME280;56054;50.968;5.816;2023-04-04T05:52:32;102013.47;;;1.27;93.60
68994;BME280;56054;50.968;5.816;2023-04-04T05:55:55;102023.72;;;1.42;92.69
68994;BME280;56054;50.968;5.816;2023-04-04T05:59:05;102021.88;;;1.41;92.07
68994;BME280;56054;50.968;5.816;2023-04-04T06:02:24;102022.63;;;1.54;93.14
68994;BME280;56054;50.968;5.816;2023-04-04T06:05:36;102020.22;;;1.63;93.58
68994;BME280;56054;50.968;5.816;2023-04-04T06:08:43;102031.78;;;1.66;91.90
68994;BME280;56054;50.968;5.816;2023-04-04T06:11:49;102026.25;;;1.70;91.76
68994;BME280;56054;50.968;5.816;2023-04-04T06:14:57;102027.75;;;1.76;92.46
68994;BME280;56054;50.968;5.816;2023-04-04T06:18:09;102037.06;;;1.61;91.82
68994;BME280;56054;50.968;5.816;2023-04-04T06:21:15;102038.16;;;1.56;90.32
68994;BME280;56054;50.968;5.816;2023-04-04T06:24:23;102025.91;;;1.75;90.98
68994;BME280;56054;50.968;5.816;2023-04-04T06:27:30;102036.69;;;1.72;89.84
68994;BME280;56054;50.968;5.816;2023-04-04T06:30:40;102038.34;;;1.64;87.57
68994;BME280;56054;50.968;5.816;2023-04-04T06:33:54;102049.50;;;1.79;86.78
68994;BME280;56054;50.968;5.816;2023-04-04T06:37:11;102056.09;;;1.91;85.72
68994;BME280;56054;50.968;5.816;2023-04-04T06:40:32;102055.88;;;2.04;83.76
68994;BME280;56054;50.968;5.816;2023-04-04T06:43:39;102056.97;;;2.06;82.19
68994;BME280;56054;50.968;5.816;2023-04-04T06:46:45;102060.66;;;2.08;82.13
68994;BME280;56054;50.968;5.816;2023-04-04T06:49:54;102074.53;;;2.32;82.19
68994;BME280;56054;50.968;5.816;2023-04-04T06:53:07;102069.72;;;2.49;80.54
68994;BME280;56054;50.968;5.816;2023-04-04T06:56:15;102075.72;;;2.57;79.26
68994;BME280;56054;50.968;5.816;2023-04-04T06:59:22;102068.00;;;2.64;77.45
68994;BME280;56054;50.968;5.816;2023-04-04T07:02:29;102072.25;;;2.64;75.05
68994;BME280;56054;50.968;5.816;2023-04-04T07:05:36;102074.88;;;2.87;75.96
68994;BME280;56054;50.968;5.816;2023-04-04T07:08:43;102077.97;;;2.91;74.51
68994;BME280;56054;50.968;5.816;2023-04-04T07:11:50;102073.81;;;3.15;74.70
68994;BME280;56054;50.968;5.816;2023-04-04T07:14:57;102070.03;;;3.57;73.61
68994;BME280;56054;50.968;5.816;2023-04-04T07:18:05;102071.56;;;3.25;71.87
68994;BME280;56054;50.968;5.816;2023-04-04T07:21:12;102079.31;;;3.41;70.72
68994;BME280;56054;50.968;5.816;2023-04-04T07:24:20;102073.19;;;3.55;70.21
68994;BME280;56054;50.968;5.816;2023-04-04T07:27:27;102079.50;;;3.42;69.32
68994;BME280;56054;50.968;5.816;2023-04-04T07:30:33;102073.94;;;3.54;67.75
68994;BME280;56054;50.968;5.816;2023-04-04T07:33:41;102062.56;;;3.52;65.18
68994;BME280;56054;50.968;5.816;2023-04-04T07:36:47;102052.06;;;3.80;64.42
68994;BME280;56054;50.968;5.816;2023-04-04T07:39:54;102067.25;;;4.02;65.34
68994;BME280;56054;50.968;5.816;2023-04-04T07:43:02;102055.28;;;3.86;62.87
68994;BME280;56054;50.968;5.816;2023-04-04T07:46:09;102052.53;;;3.85;61.57
68994;BME280;56054;50.968;5.816;2023-04-04T07:49:18;102047.00;;;3.89;63.47
68994;BME280;56054;50.968;5.816;2023-04-04T07:52:25;102039.78;;;3.94;61.36
68994;BME280;56054;50.968;5.816;2023-04-04T07:55:33;102038.09;;;4.17;60.98
68994;BME280;56054;50.968;5.816;2023-04-04T07:58:39;102041.06;;;4.13;60.66
68994;BME280;56054;50.968;5.816;2023-04-04T08:01:46;102049.44;;;4.03;58.96
68994;BME280;56054;50.968;5.816;2023-04-04T08:04:54;102054.34;;;4.09;60.70
68994;BME280;56054;50.968;5.816;2023-04-04T08:08:01;102061.50;;;4.27;60.03
68994;BME280;56054;50.968;5.816;2023-04-04T08:11:07;102056.44;;;4.36;62.56
68994;BME280;56054;50.968;5.816;2023-04-04T08:14:15;102055.84;;;4.70;61.15
68994;BME280;56054;50.968;5.816;2023-04-04T08:17:27;102067.16;;;4.48;60.21
68994;BME280;56054;50.968;5.816;2023-04-04T08:20:33;102060.03;;;4.61;59.39
68994;BME280;56054;50.968;5.816;2023-04-04T08:23:40;102060.16;;;4.63;58.59
68994;BME280;56054;50.968;5.816;2023-04-04T08:26:47;102063.59;;;4.55;56.99
68994;BME280;56054;50.968;5.816;2023-04-04T08:29:55;102057.00;;;4.65;57.77
68994;BME280;56054;50.968;5.816;2023-04-04T08:33:02;102055.06;;;5.03;58.66
68994;BME280;56054;50.968;5.816;2023-04-04T08:36:09;102056.66;;;4.94;57.61
68994;BME280;56054;50.968;5.816;2023-04-04T08:39:16;102054.56;;;4.83;57.15
68994;BME280;56054;50.968;5.816;2023-04-04T08:42:24;102056.47;;;5.08;56.64
68994;BME280;56054;50.968;5.816;2023-04-04T08:46:00;102051.72;;;5.04;56.02
68994;BME280;56054;50.968;5.816;2023-04-04T08:49:11;102049.28;;;5.46;55.67
68994;BME280;56054;50.968;5.816;2023-04-04T08:52:19;102044.94;;;5.63;57.75
68994;BME280;56054;50.968;5.816;2023-04-04T08:55:28;102047.38;;;5.61;55.46
68994;BME280;56054;50.968;5.816;2023-04-04T08:58:35;102045.28;;;5.66;54.44
68994;BME280;56054;50.968;5.816;2023-04-04T09:01:41;102054.59;;;5.81;53.42
68994;BME280;56054;50.968;5.816;2023-04-04T09:05:14;102051.72;;;5.53;52.45
68994;BME280;56054;50.968;5.816;2023-04-04T09:08:22;102049.84;;;5.68;53.49
68994;BME280;56054;50.968;5.816;2023-04-04T09:11:32;102046.09;;;5.82;52.43
68994;BME280;56054;50.968;5.816;2023-04-04T09:14:42;102054.13;;;5.76;53.36
68994;BME280;56054;50.968;5.816;2023-04-04T09:17:49;102046.66;;;5.95;52.73
68994;BME280;56054;50.968;5.816;2023-04-04T09:20:57;102044.47;;;5.91;51.21
68994;BME280;56054;50.968;5.816;2023-04-04T09:24:04;102052.81;;;5.89;51.32
68994;BME280;56054;50.968;5.816;2023-04-04T09:27:11;102052.59;;;6.03;50.87
68994;BME280;56054;50.968;5.816;2023-04-04T09:30:19;102049.44;;;6.23;50.75
68994;BME280;56054;50.968;5.816;2023-04-04T09:33:26;102043.94;;;6.11;50.69
68994;BME280;56054;50.968;5.816;2023-04-04T09:36:33;102051.47;;;6.34;49.62
68994;BME280;56054;50.968;5.816;2023-04-04T09:39:41;102049.28;;;6.13;50.33
68994;BME280;56054;50.968;5.816;2023-04-04T09:42:48;102045.72;;;5.95;49.67
68994;BME280;56054;50.968;5.816;2023-04-04T09:45:55;102045.75;;;6.04;48.74
68994;BME280;56054;50.968;5.816;2023-04-04T09:49:02;102042.34;;;6.38;49.95
68994;BME280;56054;50.968;5.816;2023-04-04T09:52:34;102034.94;;;6.58;50.38
68994;BME280;56054;50.968;5.816;2023-04-04T09:55:42;102039.16;;;6.40;48.31
68994;BME280;56054;50.968;5.816;2023-04-04T09:58:59;102041.59;;;6.39;48.06
68994;BME280;56054;50.968;5.816;2023-04-04T10:02:08;102028.81;;;6.75;49.97
68994;BME280;56054;50.968;5.816;2023-04-04T10:05:19;102030.03;;;6.88;48.52
68994;BME280;56054;50.968;5.816;2023-04-04T10:08:27;102031.59;;;6.85;48.04
68994;BME280;56054;50.968;5.816;2023-04-04T10:11:35;102021.22;;;6.94;48.39
68994;BME280;56054;50.968;5.816;2023-04-04T10:14:46;102025.03;;;6.98;48.09
68994;BME280;56054;50.968;5.816;2023-04-04T10:17:55;102023.31;;;7.07;47.15
68994;BME280;56054;50.968;5.816;2023-04-04T10:21:05;102027.44;;;6.88;47.48
68994;BME280;56054;50.968;5.816;2023-04-04T10:24:13;102015.03;;;7.46;48.15
68994;BME280;56054;50.968;5.816;2023-04-04T10:27:29;102012.03;;;7.33;46.93
68994;BME280;56054;50.968;5.816;2023-04-04T10:30:40;102009.91;;;7.28;46.48
68994;BME280;56054;50.968;5.816;2023-04-04T10:34:11;102009.09;;;7.47;47.07
68994;BME280;56054;50.968;5.816;2023-04-04T10:37:25;102007.41;;;7.47;47.09
68994;BME280;56054;50.968;5.816;2023-04-04T10:40:40;102001.19;;;7.82;47.13
68994;BME280;56054;50.968;5.816;2023-04-04T10:43:50;102002.00;;;8.00;47.42
68994;BME280;56054;50.968;5.816;2023-04-04T10:50:19;102001.09;;;7.26;45.08
68994;BME280;56054;50.968;5.816;2023-04-04T10:53:26;102002.41;;;7.85;45.82
68994;BME280;56054;50.968;5.816;2023-04-04T10:56:51;102011.78;;;7.57;46.49
68994;BME280;56054;50.968;5.816;2023-04-04T11:00:07;101989.06;;;7.72;45.96
68994;BME280;56054;50.968;5.816;2023-04-04T11:03:15;101985.41;;;7.70;45.34
68994;BME280;56054;50.968;5.816;2023-04-04T11:06:22;101987.97;;;7.79;46.01
68994;BME280;56054;50.968;5.816;2023-04-04T11:09:51;101973.41;;;7.98;45.18
68994;BME280;56054;50.968;5.816;2023-04-04T11:13:01;101967.75;;;8.02;45.21
68994;BME280;56054;50.968;5.816;2023-04-04T11:16:13;101964.22;;;7.83;44.18
68994;BME280;56054;50.968;5.816;2023-04-04T11:19:25;101965.44;;;7.78;45.23
68994;BME280;56054;50.968;5.816;2023-04-04T11:22:34;101970.50;;;7.67;44.66
68994;BME280;56054;50.968;5.816;2023-04-04T11:25:48;101958.50;;;7.96;45.18
68994;BME280;56054;50.968;5.816;2023-04-04T11:29:05;101958.00;;;8.19;45.01
68994;BME280;56054;50.968;5.816;2023-04-04T11:32:46;101958.09;;;8.10;44.40
68994;BME280;56054;50.968;5.816;2023-04-04T11:35:57;101946.28;;;7.94;44.27
68994;BME280;56054;50.968;5.816;2023-04-04T11:39:12;101950.66;;;8.04;44.31
68994;BME280;56054;50.968;5.816;2023-04-04T11:42:20;101942.25;;;8.07;44.03
68994;BME280;56054;50.968;5.816;2023-04-04T11:45:28;101948.13;;;8.42;44.56
68994;BME280;56054;50.968;5.816;2023-04-04T11:48:37;101942.38;;;8.55;43.31
68994;BME280;56054;50.968;5.816;2023-04-04T11:51:45;101943.50;;;8.48;43.56
68994;BME280;56054;50.968;5.816;2023-04-04T11:54:58;101933.41;;;8.32;42.47
68994;BME280;56054;50.968;5.816;2023-04-04T11:58:15;101928.19;;;8.70;43.67
68994;BME280;56054;50.968;5.816;2023-04-04T12:01:23;101929.50;;;8.46;43.89
68994;BME280;56054;50.968;5.816;2023-04-04T12:04:30;101924.72;;;8.51;43.97
68994;BME280;56054;50.968;5.816;2023-04-04T12:07:39;101916.50;;;8.94;44.26
68994;BME280;56054;50.968;5.816;2023-04-04T12:10:46;101921.78;;;8.56;42.94
68994;BME280;56054;50.968;5.816;2023-04-04T12:13:54;101928.72;;;8.95;43.00
68994;BME280;56054;50.968;5.816;2023-04-04T12:17:01;101910.59;;;9.06;42.67
68994;BME280;56054;50.968;5.816;2023-04-04T12:20:21;101911.66;;;9.08;42.39
68994;BME280;56054;50.968;5.816;2023-04-04T12:23:33;101911.94;;;8.82;42.50
68994;BME280;56054;50.968;5.816;2023-04-04T12:26:48;101904.72;;;9.27;42.33
68994;BME280;56054;50.968;5.816;2023-04-04T12:30:00;101904.88;;;9.49;42.47
68994;BME280;56054;50.968;5.816;2023-04-04T12:33:08;101904.34;;;8.93;41.52
68994;BME280;56054;50.968;5.816;2023-04-04T12:36:15;101897.06;;;8.89;40.43
68994;BME280;56054;50.968;5.816;2023-04-04T12:39:25;101894.59;;;9.30;42.23
68994;BME280;56054;50.968;5.816;2023-04-04T12:42:33;101900.00;;;9.23;42.39
68994;BME280;56054;50.968;5.816;2023-04-04T12:45:40;101889.50;;;9.21;41.08
68994;BME280;56054;50.968;5.816;2023-04-04T12:48:49;101879.72;;;9.58;40.97
68994;BME280;56054;50.968;5.816;2023-04-04T12:51:58;101881.41;;;9.89;41.68
68994;BME280;56054;50.968;5.816;2023-04-04T12:55:12;101871.91;;;9.89;41.60
68994;BME280;56054;50.968;5.816;2023-04-04T12:58:20;101875.31;;;9.78;41.10
68994;BME280;56054;50.968;5.816;2023-04-04T13:01:31;101874.34;;;9.26;40.81
68994;BME280;56054;50.968;5.816;2023-04-04T13:04:38;101871.00;;;9.27;40.08
68994;BME280;56054;50.968;5.816;2023-04-04T13:07:45;101862.19;;;9.76;39.70
68994;BME280;56054;50.968;5.816;2023-04-04T13:11:00;101856.22;;;9.77;39.58
68994;BME280;56054;50.968;5.816;2023-04-04T13:14:07;101859.41;;;10.16;40.24
68994;BME280;56054;50.968;5.816;2023-04-04T13:17:14;101842.69;;;9.92;39.27
68994;BME280;56054;50.968;5.816;2023-04-04T13:20:24;101841.38;;;9.97;38.44
68994;BME280;56054;50.968;5.816;2023-04-04T13:23:33;101830.50;;;10.01;40.09
68994;BME280;56054;50.968;5.816;2023-04-04T13:26:40;101832.56;;;10.05;39.82
68994;BME280;56054;50.968;5.816;2023-04-04T13:29:47;101832.59;;;9.74;40.07
68994;BME280;56054;50.968;5.816;2023-04-04T13:32:54;101826.00;;;9.78;39.38
68994;BME280;56054;50.968;5.816;2023-04-04T13:36:01;101816.16;;;10.16;38.98
68994;BME280;56054;50.968;5.816;2023-04-04T13:39:08;101809.19;;;9.95;38.80
68994;BME280;56054;50.968;5.816;2023-04-04T13:42:15;101803.94;;;10.25;39.04
68994;BME280;56054;50.968;5.816;2023-04-04T13:45:21;101812.63;;;10.36;39.47
68994;BME280;56054;50.968;5.816;2023-04-04T13:48:29;101802.56;;;10.08;39.07
68994;BME280;56054;50.968;5.816;2023-04-04T13:51:36;101797.06;;;9.73;38.60
68994;BME280;56054;50.968;5.816;2023-04-04T13:54:43;101800.34;;;10.13;38.85
68994;BME280;56054;50.968;5.816;2023-04-04T13:57:50;101791.09;;;10.17;38.54
68994;BME280;56054;50.968;5.816;2023-04-04T14:00:57;101787.53;;;10.26;39.29
68994;BME280;56054;50.968;5.816;2023-04-04T14:04:04;101794.59;;;9.64;39.11
68994;BME280;56054;50.968;5.816;2023-04-04T14:07:11;101790.94;;;9.83;39.88
68994;BME280;56054;50.968;5.816;2023-04-04T14:10:18;101787.53;;;10.26;38.71
68994;BME280;56054;50.968;5.816;2023-04-04T14:13:34;101769.03;;;10.54;37.88
68994;BME280;56054;50.968;5.816;2023-04-04T14:16:41;101770.91;;;10.67;37.53
68994;BME280;56054;50.968;5.816;2023-04-04T14:19:49;101775.09;;;10.33;36.34
68994;BME280;56054;50.968;5.816;2023-04-04T14:22:56;101769.53;;;10.28;36.25
68994;BME280;56054;50.968;5.816;2023-04-04T14:26:03;101767.69;;;10.27;36.99
68994;BME280;56054;50.968;5.816;2023-04-04T14:29:10;101773.34;;;10.01;37.73
68994;BME280;56054;50.968;5.816;2023-04-04T14:32:17;101759.81;;;10.15;37.01
68994;BME280;56054;50.968;5.816;2023-04-04T14:35:24;101759.66;;;10.56;37.73
68994;BME280;56054;50.968;5.816;2023-04-04T14:38:31;101751.38;;;10.72;36.48
68994;BME280;56054;50.968;5.816;2023-04-04T14:41:38;101749.06;;;10.65;36.70
68994;BME280;56054;50.968;5.816;2023-04-04T14:44:45;101746.72;;;10.90;36.99
68994;BME280;56054;50.968;5.816;2023-04-04T14:47:52;101742.59;;;10.38;37.02
68994;BME280;56054;50.968;5.816;2023-04-04T14:50:59;101738.44;;;10.62;35.47
68994;BME280;56054;50.968;5.816;2023-04-04T14:54:06;101743.16;;;10.56;37.23
68994;BME280;56054;50.968;5.816;2023-04-04T14:57:13;101738.97;;;10.58;37.85
68994;BME280;56054;50.968;5.816;2023-04-04T15:00:20;101740.97;;;10.94;37.64
68994;BME280;56054;50.968;5.816;2023-04-04T15:03:27;101729.75;;;11.17;37.96
68994;BME280;56054;50.968;5.816;2023-04-04T15:06:34;101729.53;;;10.92;38.20
68994;BME280;56054;50.968;5.816;2023-04-04T15:09:41;101725.13;;;10.91;38.14
68994;BME280;56054;50.968;5.816;2023-04-04T15:12:48;101723.28;;;10.78;37.75
68994;BME280;56054;50.968;5.816;2023-04-04T15:15:55;101721.72;;;10.92;37.39
68994;BME280;56054;50.968;5.816;2023-04-04T15:19:02;101725.56;;;10.85;38.05
68994;BME280;56054;50.968;5.816;2023-04-04T15:22:09;101723.91;;;10.98;38.63
68994;BME280;56054;50.968;5.816;2023-04-04T15:25:16;101716.31;;;10.45;38.45
68994;BME280;56054;50.968;5.816;2023-04-04T15:28:23;101719.16;;;10.70;38.74
68994;BME280;56054;50.968;5.816;2023-04-04T15:31:30;101720.63;;;10.44;37.51
68994;BME280;56054;50.968;5.816;2023-04-04T15:34:37;101712.53;;;10.52;38.06
68994;BME280;56054;50.968;5.816;2023-04-04T15:37:44;101705.13;;;10.90;38.31
68994;BME280;56054;50.968;5.816;2023-04-04T15:40:51;101702.78;;;10.49;38.97
68994;BME280;56054;50.968;5.816;2023-04-04T15:43:59;101708.00;;;10.49;38.62
68994;BME280;56054;50.968;5.816;2023-04-04T15:47:06;101705.41;;;10.49;37.26
68994;BME280;56054;50.968;5.816;2023-04-04T15:50:13;101706.22;;;10.38;38.18
68994;BME280;56054;50.968;5.816;2023-04-04T15:53:20;101703.81;;;10.51;37.90
68994;BME280;56054;50.968;5.816;2023-04-04T15:56:27;101703.44;;;10.68;37.78
68994;BME280;56054;50.968;5.816;2023-04-04T15:59:34;101692.03;;;10.66;38.12
68994;BME280;56054;50.968;5.816;2023-04-04T16:02:41;101685.09;;;10.89;38.07
68994;BME280;56054;50.968;5.816;2023-04-04T16:05:48;101686.47;;;10.40;37.29
68994;BME280;56054;50.968;5.816;2023-04-04T16:08:55;101683.56;;;10.47;37.74
68994;BME280;56054;50.968;5.816;2023-04-04T16:12:02;101688.25;;;10.63;38.36
68994;BME280;56054;50.968;5.816;2023-04-04T16:15:09;101683.03;;;10.51;37.72
68994;BME280;56054;50.968;5.816;2023-04-04T16:18:16;101683.81;;;10.50;37.74
68994;BME280;56054;50.968;5.816;2023-04-04T16:21:29;101671.69;;;10.39;37.76
68994;BME280;56054;50.968;5.816;2023-04-04T16:24:36;101673.22;;;10.15;36.85
68994;BME280;56054;50.968;5.816;2023-04-04T16:27:50;101665.09;;;10.00;36.61
68994;BME280;56054;50.968;5.816;2023-04-04T16:30:57;101666.75;;;9.99;36.28
68994;BME280;56054;50.968;5.816;2023-04-04T16:34:09;101666.25;;;10.03;37.73
68994;BME280;56054;50.968;5.816;2023-04-04T16:37:16;101657.66;;;9.72;37.18
68994;BME280;56054;50.968;5.816;2023-04-04T16:40:23;101665.72;;;9.65;37.16
68994;BME280;56054;50.968;5.816;2023-04-04T16:43:30;101672.44;;;9.83;38.21
68994;BME280;56054;50.968;5.816;2023-04-04T16:46:37;101653.41;;;9.95;37.12
68994;BME280;56054;50.968;5.816;2023-04-04T16:49:44;101663.16;;;9.97;38.13
68994;BME280;56054;50.968;5.816;2023-04-04T16:52:51;101655.97;;;10.05;37.79
68994;BME280;56054;50.968;5.816;2023-04-04T16:55:58;101646.31;;;10.14;37.35
68994;BME280;56054;50.968;5.816;2023-04-04T16:59:05;101658.72;;;10.28;38.51
68994;BME280;56054;50.968;5.816;2023-04-04T17:02:13;101663.69;;;9.93;38.43
68994;BME280;56054;50.968;5.816;2023-04-04T17:05:20;101657.50;;;9.81;38.39
68994;BME280;56054;50.968;5.816;2023-04-04T17:08:27;101656.09;;;9.74;38.84
68994;BME280;56054;50.968;5.816;2023-04-04T17:11:34;101649.72;;;9.81;39.00
68994;BME280;56054;50.968;5.816;2023-04-04T17:14:45;101656.25;;;9.76;39.49
68994;BME280;56054;50.968;5.816;2023-04-04T17:17:52;101656.56;;;9.58;38.70
68994;BME280;56054;50.968;5.816;2023-04-04T17:20:59;101658.25;;;9.48;39.56
68994;BME280;56054;50.968;5.816;2023-04-04T17:24:06;101653.06;;;9.48;40.17
68994;BME280;56054;50.968;5.816;2023-04-04T17:27:15;101647.88;;;9.48;39.46
68994;BME280;56054;50.968;5.816;2023-04-04T17:30:22;101648.94;;;9.39;39.95
68994;BME280;56054;50.968;5.816;2023-04-04T17:33:29;101647.91;;;9.37;39.91
68994;BME280;56054;50.968;5.816;2023-04-04T17:36:36;101634.81;;;9.36;40.19
68994;BME280;56054;50.968;5.816;2023-04-04T17:39:43;101641.16;;;9.39;40.66
68994;BME280;56054;50.968;5.816;2023-04-04T17:42:50;101644.06;;;9.22;40.58
68994;BME280;56054;50.968;5.816;2023-04-04T17:45:57;101636.91;;;9.09;39.83
68994;BME280;56054;50.968;5.816;2023-04-04T17:49:04;101636.25;;;9.12;40.32
68994;BME280;56054;50.968;5.816;2023-04-04T17:52:11;101629.69;;;9.05;40.26
68994;BME280;56054;50.968;5.816;2023-04-04T17:55:19;101636.44;;;9.03;40.26
68994;BME280;56054;50.968;5.816;2023-04-04T17:58:27;101627.22;;;8.96;40.43
68994;BME280;56054;50.968;5.816;2023-04-04T18:01:36;101622.94;;;8.87;39.99
68994;BME280;56054;50.968;5.816;2023-04-04T18:04:44;101631.38;;;8.84;40.44
68994;BME280;56054;50.968;5.816;2023-04-04T18:07:51;101637.84;;;8.89;40.62
68994;BME280;56054;50.968;5.816;2023-04-04T18:10:58;101627.00;;;8.83;41.03
68994;BME280;56054;50.968;5.816;2023-04-04T18:14:05;101631.53;;;8.75;41.83
68994;BME280;56054;50.968;5.816;2023-04-04T18:17:12;101634.63;;;8.82;41.80
68994;BME280;56054;50.968;5.816;2023-04-04T18:20:19;101633.97;;;8.74;42.35
68994;BME280;56054;50.968;5.816;2023-04-04T18:23:26;101631.13;;;8.71;42.54
68994;BME280;56054;50.968;5.816;2023-04-04T18:26:33;101636.94;;;8.89;43.57
68994;BME280;56054;50.968;5.816;2023-04-04T18:29:40;101640.97;;;8.65;43.05
68994;BME280;56054;50.968;5.816;2023-04-04T18:32:47;101641.75;;;8.64;43.64
68994;BME280;56054;50.968;5.816;2023-04-04T18:35:54;101648.09;;;8.57;43.34
68994;BME280;56054;50.968;5.816;2023-04-04T18:39:04;101650.53;;;8.55;43.31
68994;BME280;56054;50.968;5.816;2023-04-04T18:42:14;101650.03;;;8.49;43.59
68994;BME280;56054;50.968;5.816;2023-04-04T18:45:21;101651.41;;;8.46;43.47
68994;BME280;56054;50.968;5.816;2023-04-04T18:48:32;101648.06;;;8.47;44.12
68994;BME280;56054;50.968;5.816;2023-04-04T18:51:39;101651.03;;;8.41;44.56
68994;BME280;56054;50.968;5.816;2023-04-04T18:54:56;101652.72;;;8.51;44.83
68994;BME280;56054;50.968;5.816;2023-04-04T18:58:03;101653.50;;;8.40;45.59
68994;BME280;56054;50.968;5.816;2023-04-04T19:01:15;101658.53;;;8.48;46.38
68994;BME280;56054;50.968;5.816;2023-04-04T19:04:23;101659.41;;;8.39;46.33
68994;BME280;56054;50.968;5.816;2023-04-04T19:07:30;101658.88;;;8.32;46.31
68994;BME280;56054;50.968;5.816;2023-04-04T19:10:38;101661.38;;;8.41;47.36
68994;BME280;56054;50.968;5.816;2023-04-04T19:13:49;101655.75;;;8.26;47.14
68994;BME280;56054;50.968;5.816;2023-04-04T19:16:56;101651.63;;;8.39;47.51
68994;BME280;56054;50.968;5.816;2023-04-04T19:20:03;101661.47;;;8.22;47.21
68994;BME280;56054;50.968;5.816;2023-04-04T19:23:10;101661.56;;;8.24;47.82
68994;BME280;56054;50.968;5.816;2023-04-04T19:26:17;101660.41;;;8.20;47.57
68994;BME280;56054;50.968;5.816;2023-04-04T19:29:24;101657.50;;;8.07;48.21
68994;BME280;56054;50.968;5.816;2023-04-04T19:32:34;101667.22;;;8.09;47.95
68994;BME280;56054;50.968;5.816;2023-04-04T19:35:49;101675.38;;;8.04;48.41
68994;BME280;56054;50.968;5.816;2023-04-04T19:38:56;101665.41;;;8.08;48.60
68994;BME280;56054;50.968;5.816;2023-04-04T19:42:05;101673.97;;;8.07;49.12
68994;BME280;56054;50.968;5.816;2023-04-04T19:45:12;101665.28;;;8.07;49.21
68994;BME280;56054;50.968;5.816;2023-04-04T19:48:50;101668.72;;;7.97;49.01
68994;BME280;56054;50.968;5.816;2023-04-04T19:51:59;101675.59;;;7.97;49.73
68994;BME280;56054;50.968;5.816;2023-04-04T19:55:07;101664.81;;;7.92;49.36
68994;BME280;56054;50.968;5.816;2023-04-04T19:58:17;101667.41;;;7.92;49.59
68994;BME280;56054;50.968;5.816;2023-04-04T20:01:27;101664.16;;;7.84;49.30
68994;BME280;56054;50.968;5.816;2023-04-04T20:04:34;101678.44;;;8.00;51.92
68994;BME280;56054;50.968;5.816;2023-04-04T20:07:41;101675.97;;;7.91;49.91
68994;BME280;56054;50.968;5.816;2023-04-04T20:10:48;101674.44;;;7.93;51.37
68994;BME280;56054;50.968;5.816;2023-04-04T20:14:07;101674.13;;;7.90;51.27
68994;BME280;56054;50.968;5.816;2023-04-04T20:17:18;101673.16;;;7.98;52.64
68994;BME280;56054;50.968;5.816;2023-04-04T20:20:49;101682.41;;;7.86;54.59
68994;BME280;56054;50.968;5.816;2023-04-04T20:24:01;101690.22;;;7.67;54.93
68994;BME280;56054;50.968;5.816;2023-04-04T20:27:09;101672.78;;;7.75;56.05
68994;BME280;56054;50.968;5.816;2023-04-04T20:30:16;101672.59;;;7.63;55.70
68994;BME280;56054;50.968;5.816;2023-04-04T20:36:40;101687.84;;;7.60;56.98
68994;BME280;56054;50.968;5.816;2023-04-04T20:39:48;101689.69;;;7.61;56.55
68994;BME280;56054;50.968;5.816;2023-04-04T20:42:58;101677.28;;;7.48;56.87
68994;BME280;56054;50.968;5.816;2023-04-04T20:46:05;101680.66;;;7.47;57.14
68994;BME280;56054;50.968;5.816;2023-04-04T20:49:15;101678.19;;;7.48;57.05
68994;BME280;56054;50.968;5.816;2023-04-04T20:52:25;101678.00;;;7.37;58.07
68994;BME280;56054;50.968;5.816;2023-04-04T20:55:33;101676.97;;;7.35;58.01
68994;BME280;56054;50.968;5.816;2023-04-04T20:58:41;101673.16;;;7.31;58.15
68994;BME280;56054;50.968;5.816;2023-04-04T21:01:48;101659.00;;;7.17;58.40
68994;BME280;56054;50.968;5.816;2023-04-04T21:04:55;101676.06;;;7.15;58.00
68994;BME280;56054;50.968;5.816;2023-04-04T21:08:24;101668.84;;;7.02;55.74
68994;BME280;56054;50.968;5.816;2023-04-04T21:11:34;101665.97;;;7.18;58.09
68994;BME280;56054;50.968;5.816;2023-04-04T21:14:41;101662.53;;;7.09;59.46
68994;BME280;56054;50.968;5.816;2023-04-04T21:17:48;101656.75;;;6.93;56.48
68994;BME280;56054;50.968;5.816;2023-04-04T21:24:06;101656.84;;;7.03;61.49
68994;BME280;56054;50.968;5.816;2023-04-04T21:27:31;101654.81;;;6.90;61.43
68994;BME280;56054;50.968;5.816;2023-04-04T21:30:45;101657.22;;;6.89;61.98
68994;BME280;56054;50.968;5.816;2023-04-04T21:33:53;101652.19;;;6.71;62.68
68994;BME280;56054;50.968;5.816;2023-04-04T21:37:01;101658.59;;;6.66;61.79
68994;BME280;56054;50.968;5.816;2023-04-04T21:40:08;101656.22;;;6.59;62.87
68994;BME280;56054;50.968;5.816;2023-04-04T21:43:15;101655.97;;;6.38;58.98
68994;BME280;56054;50.968;5.816;2023-04-04T21:46:24;101646.72;;;6.68;62.25
68994;BME280;56054;50.968;5.816;2023-04-04T21:49:31;101640.44;;;6.75;63.57
68994;BME280;56054;50.968;5.816;2023-04-04T21:52:38;101644.00;;;6.67;66.18
68994;BME280;56054;50.968;5.816;2023-04-04T21:55:51;101641.16;;;6.63;64.73
68994;BME280;56054;50.968;5.816;2023-04-04T21:58:59;101639.84;;;6.50;63.74
68994;BME280;56054;50.968;5.816;2023-04-04T22:02:07;101643.25;;;6.31;64.89
68994;BME280;56054;50.968;5.816;2023-04-04T22:05:14;101636.56;;;6.42;64.81
68994;BME280;56054;50.968;5.816;2023-04-04T22:08:21;101639.13;;;6.42;65.12
68994;BME280;56054;50.968;5.816;2023-04-04T22:15:22;101632.84;;;6.21;66.78
68994;BME280;56054;50.968;5.816;2023-04-04T22:18:47;101637.75;;;6.09;67.74
68994;BME280;56054;50.968;5.816;2023-04-04T23:13:31;101589.66;;;5.39;77.14
